sensor_id;sensor_type;location;lat;lon;timestamp;P1;durP1;ratioP1;P2;durP2;ratioP2
7025;SDS011;3554;42.132;24.786;2022-08-21T00:00:20;6.73;;;5.43;;
7025;SDS011;3554;42.132;24.786;2022-08-21T00:02:49;8.23;;;5.37;;
7025;SDS011;3554;42.132;24.786;2022-08-21T00:05:20;6.40;;;4.90;;
7025;SDS011;3554;42.132;24.786;2022-08-21T00:07:48;6.60;;;5.60;;
7025;SDS011;3554;42.132;24.786;2022-08-21T00:10:16;8.20;;;6.10;;
7025;SDS011;3554;42.132;24.786;2022-08-21T00:12:44;12.50;;;6.50;;
7025;SDS011;3554;42.132;24.786;2022-08-21T00:15:12;9.77;;;6.83;;
7025;SDS011;3554;42.132;24.786;2022-08-21T00:17:40;8.93;;;6.37;;
7025;SDS011;3554;42.132;24.786;2022-08-21T00:20:08;8.03;;;6.37;;
7025;SDS011;3554;42.132;24.786;2022-08-21T00:22:37;7.07;;;6.40;;
7025;SDS011;3554;42.132;24.786;2022-08-21T00:25:05;10.03;;;6.47;;
7025;SDS011;3554;42.132;24.786;2022-08-21T00:27:34;7.53;;;6.60;;
7025;SDS011;3554;42.132;24.786;2022-08-21T00:30:02;8.20;;;6.27;;
7025;SDS011;3554;42.132;24.786;2022-08-21T00:32:30;7.03;;;6.43;;
7025;SDS011;3554;42.132;24.786;2022-08-21T00:34:56;6.50;;;5.90;;
7025;SDS011;3554;42.132;24.786;2022-08-21T00:37:23;8.93;;;6.23;;
7025;SDS011;3554;42.132;24.786;2022-08-21T00:39:51;10.53;;;5.73;;
7025;SDS011;3554;42.132;24.786;2022-08-21T00:42:18;8.23;;;6.77;;
7025;SDS011;3554;42.132;24.786;2022-08-21T00:44:48;9.93;;;6.67;;
7025;SDS011;3554;42.132;24.786;2022-08-21T00:47:15;6.83;;;5.77;;
7025;SDS011;3554;42.132;24.786;2022-08-21T00:49:43;8.20;;;6.00;;
7025;SDS011;3554;42.132;24.786;2022-08-21T00:52:13;11.07;;;5.47;;
7025;SDS011;3554;42.132;24.786;2022-08-21T00:54:52;7.63;;;6.37;;
7025;SDS011;3554;42.132;24.786;2022-08-21T00:57:22;6.10;;;5.53;;
7025;SDS011;3554;42.132;24.786;2022-08-21T00:59:56;6.53;;;5.93;;
7025;SDS011;3554;42.132;24.786;2022-08-21T01:02:24;9.07;;;6.03;;
7025;SDS011;3554;42.132;24.786;2022-08-21T01:04:51;8.60;;;7.17;;
7025;SDS011;3554;42.132;24.786;2022-08-21T01:07:18;7.43;;;6.60;;
7025;SDS011;3554;42.132;24.786;2022-08-21T01:09:46;9.93;;;7.60;;
7025;SDS011;3554;42.132;24.786;2022-08-21T01:12:14;8.00;;;6.73;;
7025;SDS011;3554;42.132;24.786;2022-08-21T01:14:41;12.47;;;7.53;;
7025;SDS011;3554;42.132;24.786;2022-08-21T01:17:11;10.13;;;7.83;;
7025;SDS011;3554;42.132;24.786;2022-08-21T01:19:39;9.37;;;8.47;;
7025;SDS011;3554;42.132;24.786;2022-08-21T01:22:08;8.60;;;7.80;;
7025;SDS011;3554;42.132;24.786;2022-08-21T01:24:35;7.93;;;7.17;;
7025;SDS011;3554;42.132;24.786;2022-08-21T01:27:02;8.47;;;7.70;;
7025;SDS011;3554;42.132;24.786;2022-08-21T01:29:30;9.20;;;8.40;;
7025;SDS011;3554;42.132;24.786;2022-08-21T01:32:03;14.20;;;8.13;;
7025;SDS011;3554;42.132;24.786;2022-08-21T01:34:32;9.70;;;8.83;;
7025;SDS011;3554;42.132;24.786;2022-08-21T01:37:02;12.73;;;8.97;;
7025;SDS011;3554;42.132;24.786;2022-08-21T01:39:31;10.37;;;9.20;;
7025;SDS011;3554;42.132;24.786;2022-08-21T01:41:58;11.43;;;9.33;;
7025;SDS011;3554;42.132;24.786;2022-08-21T01:44:25;13.63;;;9.03;;
7025;SDS011;3554;42.132;24.786;2022-08-21T01:46:54;10.83;;;9.73;;
7025;SDS011;3554;42.132;24.786;2022-08-21T01:49:21;10.40;;;9.40;;
7025;SDS011;3554;42.132;24.786;2022-08-21T01:51:48;16.00;;;8.37;;
7025;SDS011;3554;42.132;24.786;2022-08-21T01:54:15;11.83;;;7.83;;
7025;SDS011;3554;42.132;24.786;2022-08-21T01:56:44;9.20;;;8.27;;
7025;SDS011;3554;42.132;24.786;2022-08-21T01:59:13;9.77;;;8.67;;
7025;SDS011;3554;42.132;24.786;2022-08-21T02:01:41;9.23;;;8.17;;
7025;SDS011;3554;42.132;24.786;2022-08-21T02:04:09;9.80;;;8.53;;
7025;SDS011;3554;42.132;24.786;2022-08-21T02:06:37;10.47;;;9.47;;
7025;SDS011;3554;42.132;24.786;2022-08-21T02:09:05;9.83;;;8.83;;
7025;SDS011;3554;42.132;24.786;2022-08-21T02:11:33;15.37;;;9.37;;
7025;SDS011;3554;42.132;24.786;2022-08-21T02:14:02;9.10;;;8.20;;
7025;SDS011;3554;42.132;24.786;2022-08-21T02:16:29;8.70;;;7.87;;
7025;SDS011;3554;42.132;24.786;2022-08-21T02:18:55;8.37;;;7.40;;
7025;SDS011;3554;42.132;24.786;2022-08-21T02:21:22;8.27;;;7.77;;
7025;SDS011;3554;42.132;24.786;2022-08-21T02:23:49;12.87;;;8.07;;
7025;SDS011;3554;42.132;24.786;2022-08-21T02:26:16;7.97;;;7.23;;
7025;SDS011;3554;42.132;24.786;2022-08-21T02:28:43;7.90;;;7.23;;
7025;SDS011;3554;42.132;24.786;2022-08-21T02:31:11;8.90;;;7.37;;
7025;SDS011;3554;42.132;24.786;2022-08-21T02:33:38;8.50;;;7.03;;
7025;SDS011;3554;42.132;24.786;2022-08-21T02:36:06;11.03;;;6.97;;
7025;SDS011;3554;42.132;24.786;2022-08-21T02:38:34;7.90;;;7.10;;
7025;SDS011;3554;42.132;24.786;2022-08-21T02:41:03;12.93;;;6.47;;
7025;SDS011;3554;42.132;24.786;2022-08-21T02:43:32;10.10;;;7.23;;
7025;SDS011;3554;42.132;24.786;2022-08-21T02:46:00;8.67;;;7.57;;
7025;SDS011;3554;42.132;24.786;2022-08-21T02:48:31;8.63;;;7.87;;
7025;SDS011;3554;42.132;24.786;2022-08-21T02:51:00;7.40;;;6.73;;
7025;SDS011;3554;42.132;24.786;2022-08-21T02:53:28;6.77;;;6.17;;
7025;SDS011;3554;42.132;24.786;2022-08-21T02:55:56;8.00;;;7.30;;
7025;SDS011;3554;42.132;24.786;2022-08-21T02:58:25;7.87;;;6.70;;
7025;SDS011;3554;42.132;24.786;2022-08-21T03:00:54;9.10;;;7.77;;
7025;SDS011;3554;42.132;24.786;2022-08-21T03:03:21;11.00;;;7.10;;
7025;SDS011;3554;42.132;24.786;2022-08-21T03:05:49;7.93;;;7.30;;
7025;SDS011;3554;42.132;24.786;2022-08-21T03:08:17;8.10;;;7.47;;
7025;SDS011;3554;42.132;24.786;2022-08-21T03:10:45;8.33;;;7.33;;
7025;SDS011;3554;42.132;24.786;2022-08-21T03:13:14;12.33;;;8.60;;
7025;SDS011;3554;42.132;24.786;2022-08-21T03:15:42;8.77;;;7.93;;
7025;SDS011;3554;42.132;24.786;2022-08-21T03:18:09;8.77;;;7.80;;
7025;SDS011;3554;42.132;24.786;2022-08-21T03:20:37;10.27;;;8.37;;
7025;SDS011;3554;42.132;24.786;2022-08-21T03:23:08;8.60;;;7.63;;
7025;SDS011;3554;42.132;24.786;2022-08-21T03:25:35;9.40;;;8.20;;
7025;SDS011;3554;42.132;24.786;2022-08-21T03:28:03;8.80;;;7.97;;
7025;SDS011;3554;42.132;24.786;2022-08-21T03:30:32;11.43;;;8.60;;
7025;SDS011;3554;42.132;24.786;2022-08-21T03:32:59;8.67;;;7.93;;
7025;SDS011;3554;42.132;24.786;2022-08-21T03:35:26;8.40;;;7.70;;
7025;SDS011;3554;42.132;24.786;2022-08-21T03:37:53;14.13;;;9.33;;
7025;SDS011;3554;42.132;24.786;2022-08-21T03:40:22;13.40;;;8.40;;
7025;SDS011;3554;42.132;24.786;2022-08-21T03:42:50;9.13;;;8.20;;
7025;SDS011;3554;42.132;24.786;2022-08-21T03:45:18;14.67;;;9.10;;
7025;SDS011;3554;42.132;24.786;2022-08-21T03:47:52;13.70;;;8.80;;
7025;SDS011;3554;42.132;24.786;2022-08-21T03:50:22;16.23;;;9.20;;
7025;SDS011;3554;42.132;24.786;2022-08-21T03:52:50;9.80;;;8.93;;
7025;SDS011;3554;42.132;24.786;2022-08-21T03:55:17;13.07;;;8.47;;
7025;SDS011;3554;42.132;24.786;2022-08-21T03:57:45;10.43;;;9.00;;
7025;SDS011;3554;42.132;24.786;2022-08-21T04:00:13;10.43;;;9.33;;
7025;SDS011;3554;42.132;24.786;2022-08-21T04:02:41;10.73;;;9.37;;
7025;SDS011;3554;42.132;24.786;2022-08-21T04:05:09;10.10;;;9.37;;
7025;SDS011;3554;42.132;24.786;2022-08-21T04:07:36;10.27;;;9.27;;
7025;SDS011;3554;42.132;24.786;2022-08-21T04:10:04;11.10;;;9.97;;
7025;SDS011;3554;42.132;24.786;2022-08-21T04:12:32;11.73;;;9.93;;
7025;SDS011;3554;42.132;24.786;2022-08-21T04:15:00;10.80;;;9.70;;
7025;SDS011;3554;42.132;24.786;2022-08-21T04:17:27;13.30;;;9.80;;
7025;SDS011;3554;42.132;24.786;2022-08-21T04:19:54;11.13;;;10.07;;
7025;SDS011;3554;42.132;24.786;2022-08-21T04:22:21;14.57;;;10.63;;
7025;SDS011;3554;42.132;24.786;2022-08-21T04:24:48;11.30;;;10.23;;
7025;SDS011;3554;42.132;24.786;2022-08-21T04:27:15;13.10;;;11.83;;
7025;SDS011;3554;42.132;24.786;2022-08-21T04:29:42;12.40;;;11.13;;
7025;SDS011;3554;42.132;24.786;2022-08-21T04:32:10;11.97;;;10.87;;
7025;SDS011;3554;42.132;24.786;2022-08-21T04:34:36;13.50;;;11.03;;
7025;SDS011;3554;42.132;24.786;2022-08-21T04:37:03;11.87;;;10.67;;
7025;SDS011;3554;42.132;24.786;2022-08-21T04:39:30;10.80;;;9.73;;
7025;SDS011;3554;42.132;24.786;2022-08-21T04:41:57;10.83;;;9.83;;
7025;SDS011;3554;42.132;24.786;2022-08-21T04:44:24;11.53;;;10.13;;
7025;SDS011;3554;42.132;24.786;2022-08-21T04:46:51;11.00;;;9.93;;
7025;SDS011;3554;42.132;24.786;2022-08-21T04:49:19;12.40;;;9.63;;
7025;SDS011;3554;42.132;24.786;2022-08-21T04:51:46;13.10;;;9.70;;
7025;SDS011;3554;42.132;24.786;2022-08-21T04:54:14;11.97;;;10.07;;
7025;SDS011;3554;42.132;24.786;2022-08-21T04:56:45;17.03;;;11.20;;
7025;SDS011;3554;42.132;24.786;2022-08-21T04:59:15;12.90;;;10.23;;
7025;SDS011;3554;42.132;24.786;2022-08-21T05:01:45;16.27;;;11.30;;
7025;SDS011;3554;42.132;24.786;2022-08-21T05:04:14;12.17;;;10.40;;
7025;SDS011;3554;42.132;24.786;2022-08-21T05:06:46;11.50;;;10.30;;
7025;SDS011;3554;42.132;24.786;2022-08-21T05:09:15;11.10;;;9.93;;
7025;SDS011;3554;42.132;24.786;2022-08-21T05:11:43;13.77;;;10.00;;
7025;SDS011;3554;42.132;24.786;2022-08-21T05:14:11;11.37;;;10.43;;
7025;SDS011;3554;42.132;24.786;2022-08-21T05:16:38;11.90;;;10.80;;
7025;SDS011;3554;42.132;24.786;2022-08-21T05:19:06;12.73;;;11.10;;
7025;SDS011;3554;42.132;24.786;2022-08-21T05:21:33;12.23;;;10.83;;
7025;SDS011;3554;42.132;24.786;2022-08-21T05:24:02;13.93;;;11.60;;
7025;SDS011;3554;42.132;24.786;2022-08-21T05:26:29;12.07;;;9.40;;
7025;SDS011;3554;42.132;24.786;2022-08-21T05:28:56;15.00;;;10.93;;
7025;SDS011;3554;42.132;24.786;2022-08-21T05:31:23;11.40;;;10.40;;
7025;SDS011;3554;42.132;24.786;2022-08-21T05:33:50;10.83;;;10.03;;
7025;SDS011;3554;42.132;24.786;2022-08-21T05:36:17;11.07;;;10.07;;
7025;SDS011;3554;42.132;24.786;2022-08-21T05:38:45;11.40;;;10.23;;
7025;SDS011;3554;42.132;24.786;2022-08-21T05:41:13;13.53;;;11.50;;
7025;SDS011;3554;42.132;24.786;2022-08-21T05:43:40;13.93;;;11.40;;
7025;SDS011;3554;42.132;24.786;2022-08-21T05:46:07;15.53;;;12.00;;
7025;SDS011;3554;42.132;24.786;2022-08-21T05:48:35;11.43;;;10.27;;
7025;SDS011;3554;42.132;24.786;2022-08-21T05:51:04;11.17;;;9.40;;
7025;SDS011;3554;42.132;24.786;2022-08-21T05:53:32;11.83;;;9.33;;
7025;SDS011;3554;42.132;24.786;2022-08-21T05:55:59;10.73;;;9.73;;
7025;SDS011;3554;42.132;24.786;2022-08-21T05:58:30;10.17;;;9.23;;
7025;SDS011;3554;42.132;24.786;2022-08-21T06:00:58;9.70;;;9.00;;
7025;SDS011;3554;42.132;24.786;2022-08-21T06:03:28;19.57;;;12.17;;
7025;SDS011;3554;42.132;24.786;2022-08-21T06:05:57;10.77;;;9.90;;
7025;SDS011;3554;42.132;24.786;2022-08-21T06:08:24;12.13;;;10.37;;
7025;SDS011;3554;42.132;24.786;2022-08-21T06:10:52;9.73;;;9.00;;
7025;SDS011;3554;42.132;24.786;2022-08-21T06:13:20;13.20;;;9.33;;
7025;SDS011;3554;42.132;24.786;2022-08-21T06:15:50;9.87;;;9.00;;
7025;SDS011;3554;42.132;24.786;2022-08-21T06:18:26;9.93;;;9.00;;
7025;SDS011;3554;42.132;24.786;2022-08-21T06:20:53;10.07;;;8.20;;
7025;SDS011;3554;42.132;24.786;2022-08-21T06:23:20;9.90;;;9.10;;
7025;SDS011;3554;42.132;24.786;2022-08-21T06:25:46;10.50;;;9.50;;
7025;SDS011;3554;42.132;24.786;2022-08-21T06:28:13;10.23;;;9.17;;
7025;SDS011;3554;42.132;24.786;2022-08-21T06:30:40;11.50;;;10.30;;
7025;SDS011;3554;42.132;24.786;2022-08-21T06:33:09;11.13;;;10.03;;
7025;SDS011;3554;42.132;24.786;2022-08-21T06:35:35;12.20;;;11.03;;
7025;SDS011;3554;42.132;24.786;2022-08-21T06:38:02;11.80;;;10.60;;
7025;SDS011;3554;42.132;24.786;2022-08-21T06:40:29;11.57;;;10.27;;
7025;SDS011;3554;42.132;24.786;2022-08-21T06:42:57;11.80;;;10.70;;
7025;SDS011;3554;42.132;24.786;2022-08-21T06:45:25;11.53;;;10.70;;
7025;SDS011;3554;42.132;24.786;2022-08-21T06:47:52;12.77;;;11.03;;
7025;SDS011;3554;42.132;24.786;2022-08-21T06:50:20;10.47;;;9.30;;
7025;SDS011;3554;42.132;24.786;2022-08-21T06:52:47;9.87;;;8.87;;
7025;SDS011;3554;42.132;24.786;2022-08-21T06:55:14;14.87;;;9.97;;
7025;SDS011;3554;42.132;24.786;2022-08-21T06:57:40;10.23;;;9.23;;
7025;SDS011;3554;42.132;24.786;2022-08-21T07:00:08;9.90;;;8.50;;
7025;SDS011;3554;42.132;24.786;2022-08-21T07:02:35;10.93;;;9.30;;
7025;SDS011;3554;42.132;24.786;2022-08-21T07:05:03;9.80;;;9.10;;
7025;SDS011;3554;42.132;24.786;2022-08-21T07:07:31;12.23;;;9.77;;
7025;SDS011;3554;42.132;24.786;2022-08-21T07:09:58;11.27;;;10.27;;
7025;SDS011;3554;42.132;24.786;2022-08-21T07:12:25;12.17;;;10.00;;
7025;SDS011;3554;42.132;24.786;2022-08-21T07:14:52;12.57;;;9.83;;
7025;SDS011;3554;42.132;24.786;2022-08-21T07:17:18;10.20;;;9.17;;
7025;SDS011;3554;42.132;24.786;2022-08-21T07:19:46;11.50;;;9.97;;
7025;SDS011;3554;42.132;24.786;2022-08-21T07:22:12;10.67;;;9.57;;
7025;SDS011;3554;42.132;24.786;2022-08-21T07:24:44;10.43;;;9.27;;
7025;SDS011;3554;42.132;24.786;2022-08-21T07:27:11;14.17;;;9.50;;
7025;SDS011;3554;42.132;24.786;2022-08-21T07:29:38;9.27;;;8.57;;
7025;SDS011;3554;42.132;24.786;2022-08-21T07:32:05;14.20;;;9.80;;
7025;SDS011;3554;42.132;24.786;2022-08-21T07:34:32;11.00;;;9.90;;
7025;SDS011;3554;42.132;24.786;2022-08-21T07:36:59;13.67;;;9.93;;
7025;SDS011;3554;42.132;24.786;2022-08-21T07:39:25;10.93;;;9.77;;
7025;SDS011;3554;42.132;24.786;2022-08-21T07:41:54;11.43;;;10.43;;
7025;SDS011;3554;42.132;24.786;2022-08-21T07:44:20;13.73;;;9.90;;
7025;SDS011;3554;42.132;24.786;2022-08-21T07:46:47;11.87;;;10.67;;
7025;SDS011;3554;42.132;24.786;2022-08-21T07:49:14;14.97;;;10.73;;
7025;SDS011;3554;42.132;24.786;2022-08-21T07:51:41;12.00;;;10.70;;
7025;SDS011;3554;42.132;24.786;2022-08-21T07:54:08;12.40;;;10.87;;
7025;SDS011;3554;42.132;24.786;2022-08-21T07:56:34;12.63;;;11.27;;
7025;SDS011;3554;42.132;24.786;2022-08-21T07:59:03;15.47;;;10.30;;
7025;SDS011;3554;42.132;24.786;2022-08-21T08:01:29;11.73;;;10.77;;
7025;SDS011;3554;42.132;24.786;2022-08-21T08:03:56;11.97;;;10.70;;
7025;SDS011;3554;42.132;24.786;2022-08-21T08:06:23;11.70;;;10.60;;
7025;SDS011;3554;42.132;24.786;2022-08-21T08:08:51;11.13;;;9.83;;
7025;SDS011;3554;42.132;24.786;2022-08-21T08:11:18;10.60;;;9.57;;
7025;SDS011;3554;42.132;24.786;2022-08-21T08:13:45;11.70;;;9.50;;
7025;SDS011;3554;42.132;24.786;2022-08-21T08:16:15;10.57;;;9.57;;
7025;SDS011;3554;42.132;24.786;2022-08-21T08:18:42;11.63;;;9.83;;
7025;SDS011;3554;42.132;24.786;2022-08-21T08:21:09;11.27;;;9.33;;
7025;SDS011;3554;42.132;24.786;2022-08-21T08:23:37;11.13;;;9.80;;
7025;SDS011;3554;42.132;24.786;2022-08-21T08:26:04;9.87;;;8.83;;
7025;SDS011;3554;42.132;24.786;2022-08-21T08:28:32;8.83;;;7.57;;
7025;SDS011;3554;42.132;24.786;2022-08-21T08:30:59;10.37;;;9.40;;
7025;SDS011;3554;42.132;24.786;2022-08-21T08:33:28;13.33;;;9.13;;
7025;SDS011;3554;42.132;24.786;2022-08-21T08:35:55;12.73;;;9.87;;
7025;SDS011;3554;42.132;24.786;2022-08-21T08:38:23;9.43;;;8.47;;
7025;SDS011;3554;42.132;24.786;2022-08-21T08:40:53;9.57;;;8.77;;
7025;SDS011;3554;42.132;24.786;2022-08-21T08:43:27;9.37;;;8.67;;
7025;SDS011;3554;42.132;24.786;2022-08-21T08:45:57;10.40;;;9.00;;
7025;SDS011;3554;42.132;24.786;2022-08-21T08:48:35;14.67;;;10.07;;
7025;SDS011;3554;42.132;24.786;2022-08-21T08:51:08;13.93;;;10.33;;
7025;SDS011;3554;42.132;24.786;2022-08-21T08:53:43;12.47;;;11.27;;
7025;SDS011;3554;42.132;24.786;2022-08-21T08:56:16;13.63;;;10.60;;
7025;SDS011;3554;42.132;24.786;2022-08-21T08:58:47;13.63;;;10.03;;
7025;SDS011;3554;42.132;24.786;2022-08-21T09:01:17;9.33;;;8.43;;
7025;SDS011;3554;42.132;24.786;2022-08-21T09:03:47;10.53;;;9.63;;
7025;SDS011;3554;42.132;24.786;2022-08-21T09:06:20;10.23;;;9.23;;
7025;SDS011;3554;42.132;24.786;2022-08-21T09:08:57;13.33;;;9.93;;
7025;SDS011;3554;42.132;24.786;2022-08-21T09:11:29;10.27;;;9.30;;
7025;SDS011;3554;42.132;24.786;2022-08-21T09:14:05;9.93;;;9.13;;
7025;SDS011;3554;42.132;24.786;2022-08-21T09:16:45;8.87;;;8.17;;
7025;SDS011;3554;42.132;24.786;2022-08-21T09:19:25;9.43;;;8.37;;
7025;SDS011;3554;42.132;24.786;2022-08-21T09:22:03;9.40;;;8.60;;
7025;SDS011;3554;42.132;24.786;2022-08-21T09:24:43;9.30;;;8.43;;
7025;SDS011;3554;42.132;24.786;2022-08-21T09:27:19;9.47;;;8.47;;
7025;SDS011;3554;42.132;24.786;2022-08-21T09:29:48;9.40;;;8.40;;
7025;SDS011;3554;42.132;24.786;2022-08-21T09:32:17;9.73;;;8.73;;
7025;SDS011;3554;42.132;24.786;2022-08-21T09:34:57;8.73;;;7.90;;
7025;SDS011;3554;42.132;24.786;2022-08-21T09:37:25;11.27;;;8.40;;
7025;SDS011;3554;42.132;24.786;2022-08-21T09:39:54;9.27;;;8.33;;
7025;SDS011;3554;42.132;24.786;2022-08-21T09:42:24;9.93;;;9.13;;
7025;SDS011;3554;42.132;24.786;2022-08-21T09:45:07;10.57;;;8.83;;
7025;SDS011;3554;42.132;24.786;2022-08-21T09:47:37;12.37;;;8.70;;
7025;SDS011;3554;42.132;24.786;2022-08-21T09:50:09;9.80;;;8.87;;
7025;SDS011;3554;42.132;24.786;2022-08-21T09:52:48;10.53;;;9.70;;
7025;SDS011;3554;42.132;24.786;2022-08-21T09:55:19;11.60;;;9.57;;
7025;SDS011;3554;42.132;24.786;2022-08-21T09:58:06;10.83;;;9.87;;
7025;SDS011;3554;42.132;24.786;2022-08-21T10:00:34;16.33;;;10.27;;
7025;SDS011;3554;42.132;24.786;2022-08-21T10:03:12;10.63;;;9.73;;
7025;SDS011;3554;42.132;24.786;2022-08-21T10:05:51;10.73;;;9.73;;
7025;SDS011;3554;42.132;24.786;2022-08-21T10:08:21;14.93;;;11.97;;
7025;SDS011;3554;42.132;24.786;2022-08-21T10:10:50;11.63;;;10.43;;
7025;SDS011;3554;42.132;24.786;2022-08-21T10:13:22;10.87;;;9.63;;
7025;SDS011;3554;42.132;24.786;2022-08-21T10:15:58;11.17;;;9.30;;
7025;SDS011;3554;42.132;24.786;2022-08-21T10:18:35;12.60;;;9.63;;
7025;SDS011;3554;42.132;24.786;2022-08-21T10:21:10;20.13;;;18.03;;
7025;SDS011;3554;42.132;24.786;2022-08-21T10:23:50;23.23;;;20.87;;
7025;SDS011;3554;42.132;24.786;2022-08-21T10:26:27;15.57;;;13.93;;
7025;SDS011;3554;42.132;24.786;2022-08-21T10:29:03;11.47;;;10.17;;
7025;SDS011;3554;42.132;24.786;2022-08-21T10:31:41;17.40;;;11.23;;
7025;SDS011;3554;42.132;24.786;2022-08-21T10:34:15;13.70;;;10.50;;
7025;SDS011;3554;42.132;24.786;2022-08-21T10:36:59;13.57;;;10.50;;
7025;SDS011;3554;42.132;24.786;2022-08-21T10:39:34;11.33;;;9.90;;
7025;SDS011;3554;42.132;24.786;2022-08-21T10:42:06;10.97;;;10.10;;
7025;SDS011;3554;42.132;24.786;2022-08-21T10:44:45;13.03;;;11.67;;
7025;SDS011;3554;42.132;24.786;2022-08-21T10:47:21;11.53;;;10.63;;
7025;SDS011;3554;42.132;24.786;2022-08-21T10:49:56;11.67;;;10.47;;
7025;SDS011;3554;42.132;24.786;2022-08-21T10:52:40;19.40;;;10.23;;
7025;SDS011;3554;42.132;24.786;2022-08-21T10:55:19;12.20;;;10.47;;
7025;SDS011;3554;42.132;24.786;2022-08-21T10:57:49;16.03;;;10.50;;
7025;SDS011;3554;42.132;24.786;2022-08-21T11:00:21;11.70;;;10.53;;
7025;SDS011;3554;42.132;24.786;2022-08-21T11:02:51;12.03;;;10.07;;
7025;SDS011;3554;42.132;24.786;2022-08-21T11:05:25;12.73;;;10.40;;
7025;SDS011;3554;42.132;24.786;2022-08-21T11:08:00;13.50;;;10.33;;
7025;SDS011;3554;42.132;24.786;2022-08-21T11:10:32;11.40;;;9.33;;
7025;SDS011;3554;42.132;24.786;2022-08-21T11:13:04;12.97;;;10.83;;
7025;SDS011;3554;42.132;24.786;2022-08-21T11:15:39;12.13;;;10.90;;
7025;SDS011;3554;42.132;24.786;2022-08-21T11:18:28;16.00;;;10.87;;
7025;SDS011;3554;42.132;24.786;2022-08-21T11:21:01;12.37;;;11.27;;
7025;SDS011;3554;42.132;24.786;2022-08-21T11:23:36;13.30;;;12.07;;
7025;SDS011;3554;42.132;24.786;2022-08-21T11:26:09;12.50;;;10.83;;
7025;SDS011;3554;42.132;24.786;2022-08-21T11:28:42;17.07;;;12.17;;
7025;SDS011;3554;42.132;24.786;2022-08-21T11:31:15;16.07;;;13.07;;
7025;SDS011;3554;42.132;24.786;2022-08-21T11:33:55;18.30;;;11.80;;
7025;SDS011;3554;42.132;24.786;2022-08-21T11:36:37;12.50;;;11.33;;
7025;SDS011;3554;42.132;24.786;2022-08-21T11:39:13;14.43;;;11.33;;
7025;SDS011;3554;42.132;24.786;2022-08-21T11:41:51;13.63;;;10.80;;
7025;SDS011;3554;42.132;24.786;2022-08-21T11:44:27;12.60;;;11.33;;
7025;SDS011;3554;42.132;24.786;2022-08-21T11:47:04;13.77;;;11.97;;
7025;SDS011;3554;42.132;24.786;2022-08-21T11:49:41;13.23;;;11.70;;
7025;SDS011;3554;42.132;24.786;2022-08-21T11:52:16;13.77;;;12.20;;
7025;SDS011;3554;42.132;24.786;2022-08-21T11:54:52;12.97;;;11.80;;
7025;SDS011;3554;42.132;24.786;2022-08-21T11:57:24;14.87;;;12.27;;
7025;SDS011;3554;42.132;24.786;2022-08-21T11:59:57;13.27;;;12.00;;
7025;SDS011;3554;42.132;24.786;2022-08-21T12:02:31;16.30;;;11.40;;
7025;SDS011;3554;42.132;24.786;2022-08-21T12:05:02;12.97;;;11.63;;
7025;SDS011;3554;42.132;24.786;2022-08-21T12:07:33;12.00;;;10.90;;
7025;SDS011;3554;42.132;24.786;2022-08-21T12:10:06;11.43;;;10.33;;
7025;SDS011;3554;42.132;24.786;2022-08-21T12:12:37;12.23;;;10.20;;
7025;SDS011;3554;42.132;24.786;2022-08-21T12:15:12;14.67;;;10.43;;
7025;SDS011;3554;42.132;24.786;2022-08-21T12:17:51;13.57;;;10.47;;
7025;SDS011;3554;42.132;24.786;2022-08-21T12:20:23;11.63;;;10.50;;
7025;SDS011;3554;42.132;24.786;2022-08-21T12:23:03;11.23;;;10.33;;
7025;SDS011;3554;42.132;24.786;2022-08-21T12:25:43;14.60;;;10.80;;
7025;SDS011;3554;42.132;24.786;2022-08-21T12:28:13;11.50;;;10.50;;
7025;SDS011;3554;42.132;24.786;2022-08-21T12:30:47;11.23;;;10.00;;
7025;SDS011;3554;42.132;24.786;2022-08-21T12:33:22;12.60;;;11.27;;
7025;SDS011;3554;42.132;24.786;2022-08-21T12:35:51;11.57;;;10.57;;
7025;SDS011;3554;42.132;24.786;2022-08-21T12:38:22;15.77;;;10.77;;
7025;SDS011;3554;42.132;24.786;2022-08-21T12:40:54;10.93;;;10.00;;
7025;SDS011;3554;42.132;24.786;2022-08-21T12:43:25;12.23;;;11.10;;
7025;SDS011;3554;42.132;24.786;2022-08-21T12:45:55;14.87;;;11.67;;
7025;SDS011;3554;42.132;24.786;2022-08-21T12:48:26;11.57;;;10.57;;
7025;SDS011;3554;42.132;24.786;2022-08-21T12:50:58;17.73;;;15.77;;
7025;SDS011;3554;42.132;24.786;2022-08-21T12:53:33;12.13;;;11.27;;
7025;SDS011;3554;42.132;24.786;2022-08-21T12:56:10;11.57;;;10.60;;
7025;SDS011;3554;42.132;24.786;2022-08-21T12:58:45;11.70;;;10.27;;
7025;SDS011;3554;42.132;24.786;2022-08-21T13:01:15;15.80;;;10.93;;
7025;SDS011;3554;42.132;24.786;2022-08-21T13:03:49;12.63;;;11.43;;
7025;SDS011;3554;42.132;24.786;2022-08-21T13:06:17;12.17;;;10.93;;
7025;SDS011;3554;42.132;24.786;2022-08-21T13:08:46;11.67;;;10.53;;
7025;SDS011;3554;42.132;24.786;2022-08-21T13:11:18;12.50;;;11.30;;
7025;SDS011;3554;42.132;24.786;2022-08-21T13:13:48;11.97;;;10.80;;
7025;SDS011;3554;42.132;24.786;2022-08-21T13:16:18;12.90;;;11.57;;
7025;SDS011;3554;42.132;24.786;2022-08-21T13:18:54;12.37;;;11.00;;
7025;SDS011;3554;42.132;24.786;2022-08-21T13:21:26;12.53;;;11.13;;
7025;SDS011;3554;42.132;24.786;2022-08-21T13:23:54;14.27;;;10.23;;
7025;SDS011;3554;42.132;24.786;2022-08-21T13:26:37;15.93;;;11.63;;
7025;SDS011;3554;42.132;24.786;2022-08-21T13:29:06;11.90;;;10.80;;
7025;SDS011;3554;42.132;24.786;2022-08-21T13:31:36;10.77;;;10.13;;
7025;SDS011;3554;42.132;24.786;2022-08-21T13:34:06;9.77;;;9.17;;
7025;SDS011;3554;42.132;24.786;2022-08-21T13:36:37;9.33;;;8.47;;
7025;SDS011;3554;42.132;24.786;2022-08-21T13:39:07;10.53;;;9.57;;
7025;SDS011;3554;42.132;24.786;2022-08-21T13:41:46;12.40;;;8.40;;
7025;SDS011;3554;42.132;24.786;2022-08-21T13:44:16;8.73;;;7.90;;
7025;SDS011;3554;42.132;24.786;2022-08-21T13:46:43;7.67;;;7.03;;
7025;SDS011;3554;42.132;24.786;2022-08-21T13:49:13;7.87;;;7.23;;
7025;SDS011;3554;42.132;24.786;2022-08-21T13:51:42;7.37;;;6.70;;
7025;SDS011;3554;42.132;24.786;2022-08-21T13:54:18;7.63;;;6.90;;
7025;SDS011;3554;42.132;24.786;2022-08-21T13:56:50;7.60;;;7.10;;
7025;SDS011;3554;42.132;24.786;2022-08-21T13:59:24;8.17;;;7.47;;
7025;SDS011;3554;42.132;24.786;2022-08-21T14:01:52;7.83;;;7.23;;
7025;SDS011;3554;42.132;24.786;2022-08-21T14:04:24;7.87;;;7.10;;
7025;SDS011;3554;42.132;24.786;2022-08-21T14:06:57;8.80;;;8.13;;
7025;SDS011;3554;42.132;24.786;2022-08-21T14:09:26;8.60;;;7.50;;
7025;SDS011;3554;42.132;24.786;2022-08-21T14:11:58;7.93;;;7.30;;
7025;SDS011;3554;42.132;24.786;2022-08-21T14:14:29;8.13;;;7.33;;
7025;SDS011;3554;42.132;24.786;2022-08-21T14:16:59;8.30;;;7.60;;
7025;SDS011;3554;42.132;24.786;2022-08-21T14:19:28;7.70;;;7.07;;
7025;SDS011;3554;42.132;24.786;2022-08-21T14:22:12;6.73;;;6.33;;
7025;SDS011;3554;42.132;24.786;2022-08-21T14:24:49;8.60;;;6.90;;
7025;SDS011;3554;42.132;24.786;2022-08-21T14:27:17;7.43;;;6.93;;
7025;SDS011;3554;42.132;24.786;2022-08-21T14:29:44;7.40;;;6.70;;
7025;SDS011;3554;42.132;24.786;2022-08-21T14:32:13;7.50;;;6.93;;
7025;SDS011;3554;42.132;24.786;2022-08-21T14:34:41;8.03;;;7.20;;
7025;SDS011;3554;42.132;24.786;2022-08-21T14:37:08;8.57;;;7.47;;
7025;SDS011;3554;42.132;24.786;2022-08-21T14:39:35;7.53;;;7.07;;
7025;SDS011;3554;42.132;24.786;2022-08-21T14:42:02;7.50;;;6.90;;
7025;SDS011;3554;42.132;24.786;2022-08-21T14:44:30;7.57;;;7.07;;
7025;SDS011;3554;42.132;24.786;2022-08-21T14:46:58;7.23;;;6.70;;
7025;SDS011;3554;42.132;24.786;2022-08-21T14:49:26;7.13;;;6.43;;
7025;SDS011;3554;42.132;24.786;2022-08-21T14:51:54;7.43;;;6.83;;
7025;SDS011;3554;42.132;24.786;2022-08-21T14:54:23;7.50;;;7.00;;
7025;SDS011;3554;42.132;24.786;2022-08-21T14:56:50;6.57;;;5.97;;
7025;SDS011;3554;42.132;24.786;2022-08-21T14:59:17;6.77;;;6.27;;
7025;SDS011;3554;42.132;24.786;2022-08-21T15:01:46;6.60;;;6.13;;
7025;SDS011;3554;42.132;24.786;2022-08-21T15:04:14;6.87;;;6.30;;